createdAt,value
2023-01-26T00:00:38.025Z,-0.41
2023-01-26T00:01:38.082Z,-0.42
2023-01-26T00:02:38.203Z,-0.45
2023-01-26T00:03:38.264Z,-0.44
2023-01-26T00:04:38.331Z,-0.44
2023-01-26T00:05:38.417Z,-0.41
2023-01-26T00:06:38.457Z,-0.39
2023-01-26T00:07:38.511Z,-0.37
2023-01-26T00:08:38.595Z,-0.34
2023-01-26T00:09:38.645Z,-0.31
2023-01-26T00:10:38.754Z,-0.26
2023-01-26T00:11:38.773Z,-0.27
2023-01-26T00:12:38.853Z,-0.26
2023-01-26T00:13:38.913Z,-0.35
2023-01-26T00:14:39.007Z,-0.37
2023-01-26T00:15:39.085Z,-0.38
2023-01-26T00:16:39.169Z,-0.41
2023-01-26T00:17:39.223Z,-0.42
2023-01-26T00:18:39.317Z,-0.42
2023-01-26T00:19:39.346Z,-0.47
2023-01-26T00:20:39.438Z,-0.50
2023-01-26T00:21:39.500Z,-0.55
2023-01-26T00:22:39.584Z,-0.56
2023-01-26T00:23:39.664Z,-0.58
2023-01-26T00:24:39.718Z,-0.60
2023-01-26T00:25:39.816Z,-0.62
2023-01-26T00:26:39.872Z,-0.60
2023-01-26T00:27:39.976Z,-0.60
2023-01-26T00:28:40.044Z,-0.56
2023-01-26T00:29:40.124Z,-0.53
2023-01-26T00:30:40.344Z,-0.50
2023-01-26T00:31:40.285Z,-0.49
2023-01-26T00:32:40.307Z,-0.50
2023-01-26T00:33:40.390Z,-0.50
2023-01-26T00:34:40.443Z,-0.56
2023-01-26T00:35:40.540Z,-0.58
2023-01-26T00:36:40.585Z,-0.59
2023-01-26T00:37:40.666Z,-0.56
2023-01-26T00:38:40.720Z,-0.59
2023-01-26T00:39:40.797Z,-0.59
2023-01-26T00:40:40.872Z,-0.59
2023-01-26T00:41:40.954Z,-0.60
2023-01-26T00:42:41.011Z,-0.58
2023-01-26T00:43:41.082Z,-0.56
2023-01-26T00:44:41.133Z,-0.58
2023-01-26T00:45:41.242Z,-0.53
2023-01-26T00:46:41.381Z,-0.50
2023-01-26T00:47:41.371Z,-0.52
2023-01-26T00:48:41.445Z,-0.53
2023-01-26T00:49:41.565Z,-0.52
2023-01-26T00:50:41.632Z,-0.47
2023-01-26T00:51:41.689Z,-0.49
2023-01-26T00:52:41.763Z,-0.45
2023-01-26T00:53:41.865Z,-0.49
2023-01-26T00:54:41.922Z,-0.50
2023-01-26T00:55:42.031Z,-0.53
2023-01-26T00:56:42.094Z,-0.53
2023-01-26T00:57:42.161Z,-0.49
2023-01-26T00:58:42.224Z,-0.50
2023-01-26T00:59:42.291Z,-0.49
2023-01-26T01:00:42.443Z,-0.52
2023-01-26T01:01:42.501Z,-0.55
2023-01-26T01:02:42.508Z,-0.58
2023-01-26T01:03:42.604Z,-0.63
2023-01-26T01:04:42.676Z,-0.68
2023-01-26T01:05:42.782Z,-0.71
2023-01-26T01:06:42.831Z,-0.73
2023-01-26T01:07:42.911Z,-0.71
2023-01-26T01:08:42.964Z,-0.71
2023-01-26T01:09:43.044Z,-0.70
2023-01-26T01:10:43.143Z,-0.71
2023-01-26T01:11:43.176Z,-0.76
2023-01-26T01:12:43.231Z,-0.73
2023-01-26T01:13:43.307Z,-0.77
2023-01-26T01:14:43.356Z,-0.77
2023-01-26T01:15:43.474Z,-0.83
2023-01-26T01:16:43.527Z,-0.85
2023-01-26T01:17:43.632Z,-0.93
2023-01-26T01:18:43.684Z,-0.86
2023-01-26T01:19:43.785Z,-0.86
2023-01-26T01:20:43.845Z,-0.80
2023-01-26T01:21:43.899Z,-0.81
2023-01-26T01:22:43.970Z,-0.86
2023-01-26T01:23:44.061Z,-0.86
2023-01-26T01:24:44.104Z,-0.85
2023-01-26T01:25:44.207Z,-0.81
2023-01-26T01:26:44.257Z,-0.80
2023-01-26T01:27:44.344Z,-0.78
2023-01-26T01:28:44.393Z,-0.74
2023-01-26T01:29:44.499Z,-0.71
2023-01-26T01:30:44.567Z,-0.73
2023-01-26T01:31:44.695Z,-0.76
2023-01-26T01:32:44.693Z,-0.74
2023-01-26T01:33:44.781Z,-0.73
2023-01-26T01:34:44.835Z,-0.76
2023-01-26T01:35:44.932Z,-0.76
2023-01-26T01:36:44.980Z,-0.77
2023-01-26T01:37:45.075Z,-0.77
2023-01-26T01:38:45.126Z,-0.78
2023-01-26T01:39:45.227Z,-0.80
2023-01-26T01:40:45.300Z,-0.83
2023-01-26T01:41:45.384Z,-0.89
2023-01-26T01:42:45.435Z,-0.83
2023-01-26T01:43:45.548Z,-0.81
2023-01-26T01:44:45.591Z,-0.80
2023-01-26T01:45:45.690Z,-0.78
2023-01-26T01:46:45.738Z,-0.76
2023-01-26T01:47:45.806Z,-0.78
2023-01-26T01:48:45.869Z,-0.77
2023-01-26T01:49:45.951Z,-0.78
2023-01-26T01:50:46.033Z,-0.81
2023-01-26T01:51:46.098Z,-0.81
2023-01-26T01:52:46.159Z,-0.83
2023-01-26T01:53:46.248Z,-0.80
2023-01-26T01:54:46.324Z,-0.78
2023-01-26T01:55:46.428Z,-0.77
2023-01-26T01:56:46.472Z,-0.74
2023-01-26T01:57:46.552Z,-0.71
2023-01-26T01:58:46.602Z,-0.73
2023-01-26T01:59:46.709Z,-0.73
2023-01-26T02:00:46.821Z,-0.71
2023-01-26T02:01:46.925Z,-0.74
2023-01-26T02:02:46.906Z,-0.73
2023-01-26T02:03:46.997Z,-0.74
2023-01-26T02:04:47.045Z,-0.74
2023-01-26T02:05:47.137Z,-0.76
2023-01-26T02:06:47.181Z,-0.76
2023-01-26T02:07:47.293Z,-0.73
2023-01-26T02:08:47.341Z,-0.71
2023-01-26T02:09:47.424Z,-0.70
2023-01-26T02:10:47.510Z,-0.70
2023-01-26T02:11:47.554Z,-0.67
2023-01-26T02:12:47.622Z,-0.62
2023-01-26T02:13:47.722Z,-0.60
2023-01-26T02:14:47.772Z,-0.58
2023-01-26T02:15:47.882Z,-0.58
2023-01-26T02:16:47.909Z,-0.53
2023-01-26T02:17:47.972Z,-0.56
2023-01-26T02:18:48.041Z,-0.55
2023-01-26T02:19:48.120Z,-0.55
2023-01-26T02:20:48.184Z,-0.53
2023-01-26T02:21:48.259Z,-0.53
2023-01-26T02:22:48.334Z,-0.55
2023-01-26T02:23:48.461Z,-0.53
2023-01-26T02:24:48.486Z,-0.50
2023-01-26T02:25:48.549Z,-0.49
2023-01-26T02:26:48.635Z,-0.44
2023-01-26T02:27:48.689Z,-0.44
2023-01-26T02:28:48.790Z,-0.42
2023-01-26T02:29:48.825Z,-0.41
2023-01-26T02:30:48.956Z,-0.42
2023-01-26T02:31:49.017Z,-0.45
2023-01-26T02:32:49.023Z,-0.53
2023-01-26T02:33:49.105Z,-0.56
2023-01-26T02:34:49.208Z,-0.67
2023-01-26T02:35:49.257Z,-0.70
2023-01-26T02:36:49.329Z,-0.73
2023-01-26T02:37:49.392Z,-0.70
2023-01-26T02:38:49.495Z,-0.76
2023-01-26T02:39:49.547Z,-0.78
2023-01-26T02:40:49.651Z,-0.81
2023-01-26T02:41:49.704Z,-0.90
2023-01-26T02:42:49.804Z,-0.90
2023-01-26T02:43:49.893Z,-0.89
2023-01-26T02:44:49.987Z,-0.85
2023-01-26T02:45:50.065Z,-0.85
2023-01-26T02:46:50.100Z,-0.83
2023-01-26T02:47:50.159Z,-0.81
2023-01-26T02:48:50.238Z,-0.81
2023-01-26T02:49:50.308Z,-0.85
2023-01-26T02:50:50.432Z,-0.81
2023-01-26T02:51:50.484Z,-0.78
2023-01-26T02:52:50.565Z,-0.74
2023-01-26T02:53:50.623Z,-0.73
2023-01-26T02:54:50.708Z,-0.71
2023-01-26T02:55:50.782Z,-0.70
2023-01-26T02:56:50.833Z,-0.70
2023-01-26T02:57:50.887Z,-0.71
2023-01-26T02:58:50.969Z,-0.73
2023-01-26T02:59:51.039Z,-0.71
2023-01-26T03:00:51.188Z,-0.73
2023-01-26T03:01:51.269Z,-0.77
2023-01-26T03:02:51.269Z,-0.78
2023-01-26T03:03:51.329Z,-0.78
2023-01-26T03:04:51.413Z,-0.80
2023-01-26T03:05:51.512Z,-0.83
2023-01-26T03:06:51.563Z,-0.81
2023-01-26T03:07:51.620Z,-0.83
2023-01-26T03:08:51.727Z,-0.85
2023-01-26T03:09:51.775Z,-0.86
2023-01-26T03:10:51.880Z,-0.89
2023-01-26T03:11:51.932Z,-0.93
2023-01-26T03:12:52.010Z,-0.93
2023-01-26T03:13:52.070Z,-0.92
2023-01-26T03:14:52.165Z,-0.90
2023-01-26T03:15:52.563Z,-0.86
2023-01-26T03:16:52.315Z,-0.86
2023-01-26T03:17:52.371Z,-0.90
2023-01-26T03:18:52.469Z,-0.92
2023-01-26T03:19:52.525Z,-0.92
2023-01-26T03:20:52.606Z,-0.89
2023-01-26T03:21:52.671Z,-0.83
2023-01-26T03:22:52.755Z,-0.78
2023-01-26T03:23:52.845Z,-0.78
2023-01-26T03:24:52.912Z,-0.74
2023-01-26T03:25:52.976Z,-0.71
2023-01-26T03:26:53.057Z,-0.65
2023-01-26T03:27:53.120Z,-0.63
2023-01-26T03:28:53.213Z,-0.63
2023-01-26T03:29:53.269Z,-0.62
2023-01-26T03:30:53.535Z,-0.60
2023-01-26T03:31:53.415Z,-0.60
2023-01-26T03:32:53.497Z,-0.59
2023-01-26T03:33:53.551Z,-0.56
2023-01-26T03:34:53.654Z,-0.58
2023-01-26T03:35:53.723Z,-0.59
2023-01-26T03:36:53.804Z,-0.62
2023-01-26T03:37:53.860Z,-0.68
2023-01-26T03:38:53.942Z,-0.68
2023-01-26T03:39:54.026Z,-0.68
2023-01-26T03:40:54.100Z,-0.73
2023-01-26T03:41:54.154Z,-0.73
2023-01-26T03:42:54.236Z,-0.73
2023-01-26T03:43:54.323Z,-0.76
2023-01-26T03:44:54.413Z,-0.74
2023-01-26T03:45:54.491Z,-0.78
2023-01-26T03:46:54.593Z,-0.78
2023-01-26T03:47:54.606Z,-0.78
2023-01-26T03:48:54.698Z,-0.78
2023-01-26T03:49:54.751Z,-0.77
2023-01-26T03:50:54.842Z,-0.74
2023-01-26T03:51:54.915Z,-0.70
2023-01-26T03:52:55.004Z,-0.68
2023-01-26T03:53:55.035Z,-0.67
2023-01-26T03:54:55.134Z,-0.67
2023-01-26T03:55:55.223Z,-0.67
2023-01-26T03:56:55.297Z,-0.67
2023-01-26T03:57:55.356Z,-0.65
2023-01-26T03:58:55.471Z,-0.62
2023-01-26T03:59:55.547Z,-0.63
2023-01-26T04:00:55.760Z,-0.63
2023-01-26T04:01:55.768Z,-0.65
2023-01-26T04:02:55.818Z,-0.62
2023-01-26T04:03:55.874Z,-0.60
2023-01-26T04:04:55.972Z,-0.59
2023-01-26T04:05:56.049Z,-0.56
2023-01-26T04:06:56.129Z,-0.55
2023-01-26T04:07:56.176Z,-0.55
2023-01-26T04:08:56.263Z,-0.53
2023-01-26T04:09:56.313Z,-0.55
2023-01-26T04:10:56.420Z,-0.56
2023-01-26T04:11:56.483Z,-0.56
2023-01-26T04:12:56.552Z,-0.55
2023-01-26T04:13:56.683Z,-0.55
2023-01-26T04:14:56.733Z,-0.56
2023-01-26T04:15:56.811Z,-0.58
2023-01-26T04:16:56.892Z,-0.60
2023-01-26T04:17:56.946Z,-0.62
2023-01-26T04:18:57.023Z,-0.62
2023-01-26T04:19:57.079Z,-0.60
2023-01-26T04:20:57.177Z,-0.56
2023-01-26T04:21:57.234Z,-0.56
2023-01-26T04:22:57.313Z,-0.56
2023-01-26T04:23:57.490Z,-0.58
2023-01-26T04:24:57.467Z,-0.53
2023-01-26T04:25:57.529Z,-0.52
2023-01-26T04:26:57.596Z,-0.49
2023-01-26T04:27:57.646Z,-0.49
2023-01-26T04:28:57.725Z,-0.50
2023-01-26T04:29:57.791Z,-0.47
2023-01-26T04:30:57.900Z,-0.45
2023-01-26T04:31:57.932Z,-0.44
2023-01-26T04:32:58.012Z,-0.42
2023-01-26T04:33:58.080Z,-0.42
2023-01-26T04:34:58.152Z,-0.44
2023-01-26T04:35:58.220Z,-0.42
2023-01-26T04:36:58.300Z,-0.41
2023-01-26T04:37:58.359Z,-0.42
2023-01-26T04:38:58.436Z,-0.42
2023-01-26T04:39:58.516Z,-0.41
2023-01-26T04:40:58.576Z,-0.39
2023-01-26T04:41:58.658Z,-0.37
2023-01-26T04:42:58.706Z,-0.38
2023-01-26T04:43:58.797Z,-0.42
2023-01-26T04:44:58.868Z,-0.42
2023-01-26T04:45:58.988Z,-0.44
2023-01-26T04:46:58.989Z,-0.42
2023-01-26T04:47:59.091Z,-0.41
2023-01-26T04:48:59.144Z,-0.44
2023-01-26T04:49:59.227Z,-0.45
2023-01-26T04:50:59.296Z,-0.42
2023-01-26T04:51:59.358Z,-0.42
2023-01-26T04:52:59.427Z,-0.41
2023-01-26T04:53:59.533Z,-0.39
2023-01-26T04:54:59.583Z,-0.39
2023-01-26T04:55:59.688Z,-0.37
2023-01-26T04:56:59.739Z,-0.37
2023-01-26T04:57:59.822Z,-0.38
2023-01-26T04:58:59.876Z,-0.39
2023-01-26T04:59:59.958Z,-0.39
2023-01-26T05:01:00.052Z,-0.39
2023-01-26T05:02:00.132Z,-0.37
2023-01-26T05:03:00.162Z,-0.35
2023-01-26T05:04:00.301Z,-0.35
2023-01-26T05:05:00.332Z,-0.31
2023-01-26T05:06:00.435Z,-0.32
2023-01-26T05:07:00.484Z,-0.27
2023-01-26T05:08:00.573Z,-0.27
2023-01-26T05:09:00.630Z,-0.30
2023-01-26T05:10:00.708Z,-0.32
2023-01-26T05:11:00.792Z,-0.38
2023-01-26T05:12:00.853Z,-0.39
2023-01-26T05:13:00.909Z,-0.38
2023-01-26T05:14:00.995Z,-0.38
2023-01-26T05:15:01.055Z,-0.38
2023-01-26T05:16:01.140Z,-0.38
2023-01-26T05:17:01.947Z,-0.38
2023-01-26T05:18:01.273Z,-0.38
2023-01-26T05:19:01.327Z,-0.37
2023-01-26T05:20:01.424Z,-0.34
2023-01-26T05:21:01.477Z,-0.31
2023-01-26T05:22:01.573Z,-0.30
2023-01-26T05:23:01.635Z,-0.30
2023-01-26T05:24:01.758Z,-0.26
2023-01-26T05:25:01.806Z,-0.27
2023-01-26T05:26:01.884Z,-0.31
2023-01-26T05:27:01.935Z,-0.32
2023-01-26T05:28:02.037Z,-0.35
2023-01-26T05:29:02.112Z,-0.39
2023-01-26T05:30:02.191Z,-0.42
2023-01-26T05:31:02.293Z,-0.42
2023-01-26T05:32:02.412Z,-0.44
2023-01-26T05:33:02.403Z,-0.45
2023-01-26T05:34:02.480Z,-0.45
2023-01-26T05:35:02.552Z,-0.47
2023-01-26T05:36:02.636Z,-0.47
2023-01-26T05:37:02.685Z,-0.44
2023-01-26T05:38:02.769Z,-0.44
2023-01-26T05:39:02.824Z,-0.39
2023-01-26T05:40:02.898Z,-0.38
2023-01-26T05:41:02.963Z,-0.35
2023-01-26T05:42:03.024Z,-0.35
2023-01-26T05:43:03.081Z,-0.32
2023-01-26T05:44:03.156Z,-0.31
2023-01-26T05:45:03.214Z,-0.31
2023-01-26T05:46:03.461Z,-0.32
2023-01-26T05:47:03.385Z,-0.34
2023-01-26T05:48:03.491Z,-0.41
2023-01-26T05:49:03.545Z,-0.45
2023-01-26T05:50:03.634Z,-0.49
2023-01-26T05:51:04.128Z,-0.52
2023-01-26T05:52:03.774Z,-0.55
2023-01-26T05:53:03.826Z,-0.60
2023-01-26T05:54:03.918Z,-0.62
2023-01-26T05:55:03.971Z,-0.63
2023-01-26T05:56:04.079Z,-0.63
2023-01-26T05:57:04.127Z,-0.65
2023-01-26T05:58:04.238Z,-0.73
2023-01-26T05:59:04.308Z,-0.77
2023-01-26T06:00:04.386Z,-0.77
2023-01-26T06:01:04.462Z,-0.78
2023-01-26T06:02:04.569Z,-0.78
2023-01-26T06:03:04.593Z,-0.77
2023-01-26T06:04:04.698Z,-0.77
2023-01-26T06:05:04.756Z,-0.74
2023-01-26T06:06:04.854Z,-0.73
2023-01-26T06:07:04.913Z,-0.70
2023-01-26T06:08:05.032Z,-0.70
2023-01-26T06:09:05.081Z,-0.68
2023-01-26T06:10:05.168Z,-0.67
2023-01-26T06:11:05.234Z,-0.68
2023-01-26T06:12:05.305Z,-0.68
2023-01-26T06:13:05.363Z,-0.68
2023-01-26T06:14:05.432Z,-0.65
2023-01-26T06:15:05.522Z,-0.63
2023-01-26T06:16:05.627Z,-0.60
2023-01-26T06:17:05.670Z,-0.62
2023-01-26T06:18:05.748Z,-0.60
2023-01-26T06:19:05.804Z,-0.62
2023-01-26T06:20:05.882Z,-0.63
2023-01-26T06:21:05.953Z,-0.59
2023-01-26T06:22:06.014Z,-0.60
2023-01-26T06:23:06.070Z,-0.58
2023-01-26T06:24:06.189Z,-0.56
2023-01-26T06:25:06.228Z,-0.55
2023-01-26T06:26:06.334Z,-0.58
2023-01-26T06:27:06.370Z,-0.55
2023-01-26T06:28:06.450Z,-0.53
2023-01-26T06:29:06.512Z,-0.58
2023-01-26T06:30:06.595Z,-0.58
2023-01-26T06:31:06.751Z,-0.56
2023-01-26T06:32:06.733Z,-0.56
2023-01-26T06:33:06.790Z,-0.53
2023-01-26T06:34:06.869Z,-0.52
2023-01-26T06:35:06.932Z,-0.50
2023-01-26T06:36:07.027Z,-0.49
2023-01-26T06:37:07.069Z,-0.49
2023-01-26T06:38:07.154Z,-0.49
2023-01-26T06:39:07.206Z,-0.49
2023-01-26T06:40:07.299Z,-0.52
2023-01-26T06:41:07.377Z,-0.55
2023-01-26T06:42:07.429Z,-0.55
2023-01-26T06:43:07.516Z,-0.58
2023-01-26T06:44:07.588Z,-0.56
2023-01-26T06:45:07.659Z,-0.56
2023-01-26T06:46:07.856Z,-0.55
2023-01-26T06:47:07.823Z,-0.53
2023-01-26T06:48:07.917Z,-0.52
2023-01-26T06:49:07.972Z,-0.49
2023-01-26T06:50:08.047Z,-0.47
2023-01-26T06:51:08.135Z,-0.45
2023-01-26T06:52:08.218Z,-0.42
2023-01-26T06:53:08.288Z,-0.38
2023-01-26T06:54:08.353Z,-0.37
2023-01-26T06:55:08.418Z,-0.34
2023-01-26T06:56:08.508Z,-0.35
2023-01-26T06:57:08.569Z,-0.37
2023-01-26T06:58:08.655Z,-0.37
2023-01-26T06:59:08.719Z,-0.32
2023-01-26T07:00:08.989Z,-0.32
2023-01-26T07:01:08.938Z,-0.32
2023-01-26T07:02:09.005Z,-0.34
2023-01-26T07:03:09.027Z,-0.35
2023-01-26T07:04:09.123Z,-0.38
2023-01-26T07:05:11.011Z,-0.41
2023-01-26T07:06:09.284Z,-0.45
2023-01-26T07:07:09.335Z,-0.50
2023-01-26T07:08:09.423Z,-0.50
2023-01-26T07:09:09.477Z,-0.49
2023-01-26T07:10:09.868Z,-0.49
2023-01-26T07:11:09.663Z,-0.47
2023-01-26T07:12:09.750Z,-0.47
2023-01-26T07:13:09.794Z,-0.45
2023-01-26T07:14:09.904Z,-0.44
2023-01-26T07:15:09.951Z,-0.42
2023-01-26T07:16:10.130Z,-0.45
2023-01-26T07:17:10.110Z,-0.47
2023-01-26T07:18:10.194Z,-0.49
2023-01-26T07:19:10.251Z,-0.50
2023-01-26T07:20:10.670Z,-0.52
2023-01-26T07:21:10.415Z,-0.50
2023-01-26T07:22:10.497Z,-0.47
2023-01-26T07:23:10.568Z,-0.45
2023-01-26T07:24:10.683Z,-0.45
2023-01-26T07:25:10.723Z,-0.47
2023-01-26T07:26:10.813Z,-0.47
2023-01-26T07:27:10.871Z,-0.47
2023-01-26T07:28:10.951Z,-0.47
2023-01-26T07:29:11.006Z,-0.49
2023-01-26T07:30:11.436Z,-0.47
2023-01-26T07:31:11.302Z,-0.45
2023-01-26T07:32:11.260Z,-0.44
2023-01-26T07:33:11.333Z,-0.41
2023-01-26T07:34:11.434Z,-0.39
2023-01-26T07:35:11.490Z,-0.37
2023-01-26T07:36:11.579Z,-0.37
2023-01-26T07:37:11.632Z,-0.34
2023-01-26T07:38:11.714Z,-0.32
2023-01-26T07:39:11.768Z,-0.34
2023-01-26T07:40:12.336Z,-0.32
2023-01-26T07:41:11.955Z,-0.30
2023-01-26T07:42:12.002Z,-0.30
2023-01-26T07:43:12.068Z,-0.27
2023-01-26T07:44:12.217Z,-0.27
2023-01-26T07:45:12.210Z,-0.27
2023-01-26T07:46:12.447Z,-0.26
2023-01-26T07:47:12.367Z,-0.32
2023-01-26T07:48:12.448Z,-0.32
2023-01-26T07:49:12.519Z,-0.35
2023-01-26T07:50:12.799Z,-0.32
2023-01-26T07:51:12.676Z,-0.32
2023-01-26T07:52:12.720Z,-0.34
2023-01-26T07:53:12.793Z,-0.34
2023-01-26T07:54:12.870Z,-0.31
2023-01-26T07:55:12.922Z,-0.26
2023-01-26T07:56:13.029Z,-0.27
2023-01-26T07:57:13.082Z,-0.24
2023-01-26T07:58:13.160Z,-0.20
2023-01-26T07:59:13.216Z,-0.17
2023-01-26T08:00:13.618Z,-0.13
2023-01-26T08:01:13.431Z,-0.08
2023-01-26T08:02:13.474Z,-0.05
2023-01-26T08:03:13.522Z,-0.01
2023-01-26T08:04:13.632Z,0.04
2023-01-26T08:05:13.727Z,0.08
2023-01-26T08:06:14.990Z,0.10
2023-01-26T08:07:13.859Z,0.13
2023-01-26T08:08:13.972Z,0.16
2023-01-26T08:09:14.040Z,0.13
2023-01-26T08:10:14.383Z,0.13
2023-01-26T08:11:14.238Z,0.13
2023-01-26T08:12:14.306Z,0.16
2023-01-26T08:13:17.083Z,0.16
2023-01-26T08:14:14.484Z,0.17
2023-01-26T08:15:14.549Z,0.20
2023-01-26T08:16:14.771Z,0.22
2023-01-26T08:17:14.708Z,0.26
2023-01-26T08:18:14.771Z,0.26
2023-01-26T08:19:14.846Z,0.30
2023-01-26T08:20:14.905Z,0.30
2023-01-26T08:21:15.001Z,0.31
2023-01-26T08:22:15.067Z,0.33
2023-01-26T08:23:15.142Z,0.34
2023-01-26T08:24:15.271Z,0.33
2023-01-26T08:25:15.338Z,0.34
2023-01-26T08:26:15.484Z,0.35
2023-01-26T08:27:15.464Z,0.38
2023-01-26T08:28:15.540Z,0.40
2023-01-26T08:29:15.606Z,0.40
2023-01-26T08:30:15.691Z,0.40
2023-01-26T08:31:15.855Z,0.44
2023-01-26T08:32:15.843Z,0.48
2023-01-26T08:33:15.914Z,0.45
2023-01-26T08:34:16.020Z,0.45
2023-01-26T08:35:16.080Z,0.48
2023-01-26T08:36:16.195Z,0.45
2023-01-26T08:37:16.208Z,0.45
2023-01-26T08:38:16.320Z,0.45
2023-01-26T08:39:16.366Z,0.48
2023-01-26T08:40:16.454Z,0.45
2023-01-26T08:41:16.542Z,0.45
2023-01-26T08:42:16.615Z,0.44
2023-01-26T08:43:16.699Z,0.41
2023-01-26T08:44:16.761Z,0.43
2023-01-26T08:45:16.837Z,0.43
2023-01-26T08:46:16.992Z,0.41
2023-01-26T08:47:17.000Z,0.38
2023-01-26T08:48:17.081Z,0.34
2023-01-26T08:49:17.164Z,0.30
2023-01-26T08:50:17.233Z,0.28
2023-01-26T08:51:17.320Z,0.30
2023-01-26T08:52:17.411Z,0.31
2023-01-26T08:53:17.488Z,0.31
2023-01-26T08:54:17.589Z,0.34
2023-01-26T08:55:17.679Z,0.35
2023-01-26T08:56:17.753Z,0.34
2023-01-26T08:57:17.822Z,0.37
2023-01-26T08:58:17.903Z,0.40
2023-01-26T08:59:17.981Z,0.44
2023-01-26T09:00:18.056Z,0.45
2023-01-26T09:01:18.211Z,0.49
2023-01-26T09:02:18.265Z,0.48
2023-01-26T09:03:18.315Z,0.49
2023-01-26T09:04:18.327Z,0.52
2023-01-26T09:05:18.419Z,0.53
2023-01-26T09:06:18.500Z,0.53
2023-01-26T09:07:18.593Z,0.53
2023-01-26T09:08:18.669Z,0.56
2023-01-26T09:09:18.759Z,0.52
2023-01-26T09:10:18.834Z,0.53
2023-01-26T09:11:18.924Z,0.52
2023-01-26T09:12:18.963Z,0.56
2023-01-26T09:13:19.033Z,0.59
2023-01-26T09:14:19.110Z,0.57
2023-01-26T09:15:19.205Z,0.62
2023-01-26T09:16:19.323Z,0.64
2023-01-26T09:17:19.332Z,0.67
2023-01-26T09:18:19.418Z,0.68
2023-01-26T09:19:19.495Z,0.72
2023-01-26T09:20:19.573Z,0.75
2023-01-26T09:21:19.669Z,0.72
2023-01-26T09:22:19.902Z,0.75
2023-01-26T09:23:19.796Z,0.74
2023-01-26T09:24:19.944Z,0.75
2023-01-26T09:25:19.962Z,0.75
2023-01-26T09:26:20.076Z,0.77
2023-01-26T09:27:20.139Z,0.75
2023-01-26T09:28:20.243Z,0.78
2023-01-26T09:29:20.303Z,0.74
2023-01-26T09:30:20.464Z,0.67
2023-01-26T09:31:20.680Z,0.59
2023-01-26T09:32:20.542Z,0.57
2023-01-26T09:33:20.625Z,0.52
2023-01-26T09:34:20.706Z,0.49
2023-01-26T09:35:20.780Z,0.48
2023-01-26T09:36:20.875Z,0.49
2023-01-26T09:37:20.931Z,0.45
2023-01-26T09:38:21.008Z,0.43
2023-01-26T09:39:21.098Z,0.41
2023-01-26T09:40:21.180Z,0.38
2023-01-26T09:41:21.274Z,0.37
2023-01-26T09:42:21.324Z,0.37
2023-01-26T09:43:21.395Z,0.37
2023-01-26T09:44:21.480Z,0.38
2023-01-26T09:45:21.567Z,0.41
2023-01-26T09:46:21.710Z,0.44
2023-01-26T09:47:21.725Z,0.49
2023-01-26T09:48:24.996Z,0.52
2023-01-26T09:49:21.888Z,0.59
2023-01-26T09:50:21.957Z,0.60
2023-01-26T09:51:22.059Z,0.64
2023-01-26T09:52:22.127Z,0.67
2023-01-26T09:53:22.191Z,0.72
2023-01-26T09:54:22.274Z,0.74
2023-01-26T09:55:22.367Z,0.75
2023-01-26T09:56:22.462Z,0.78
2023-01-26T09:57:22.553Z,0.80
2023-01-26T09:58:22.632Z,0.82
2023-01-26T09:59:22.712Z,0.82
2023-01-26T10:00:22.783Z,0.82
2023-01-26T10:01:22.943Z,0.84
2023-01-26T10:02:22.951Z,0.84
2023-01-26T10:03:23.008Z,0.82
2023-01-26T10:04:23.086Z,0.86
2023-01-26T10:05:23.173Z,0.86
2023-01-26T10:06:23.266Z,0.89
2023-01-26T10:07:23.336Z,0.92
2023-01-26T10:08:23.414Z,0.92
2023-01-26T10:09:23.485Z,0.92
2023-01-26T10:10:23.558Z,0.92
2023-01-26T10:11:23.688Z,0.90
2023-01-26T10:12:23.737Z,0.90
2023-01-26T10:13:23.813Z,0.90
2023-01-26T10:14:23.861Z,0.89
2023-01-26T10:15:23.930Z,0.89
2023-01-26T10:16:24.024Z,0.88
2023-01-26T10:17:24.106Z,0.88
2023-01-26T10:18:24.172Z,0.88
2023-01-26T10:19:24.247Z,0.84
2023-01-26T10:20:24.325Z,0.84
2023-01-26T10:21:24.431Z,0.86
2023-01-26T10:22:24.475Z,0.84
2023-01-26T10:23:24.549Z,0.86
2023-01-26T10:24:24.751Z,0.84
2023-01-26T10:25:25.455Z,0.86
2023-01-26T10:26:24.812Z,0.89
2023-01-26T10:27:24.890Z,0.89
2023-01-26T10:28:25.093Z,0.92
2023-01-26T10:29:25.068Z,0.92
2023-01-26T10:30:25.186Z,0.95
2023-01-26T10:31:25.461Z,0.98
2023-01-26T10:32:25.291Z,0.98
2023-01-26T10:33:25.376Z,1.00
2023-01-26T10:34:25.443Z,0.99
2023-01-26T10:35:25.514Z,1.02
2023-01-26T10:36:25.619Z,0.99
2023-01-26T10:37:25.684Z,0.99
2023-01-26T10:38:25.761Z,0.95
2023-01-26T10:39:25.850Z,0.93
2023-01-26T10:40:25.929Z,0.95
2023-01-26T10:41:26.023Z,0.96
2023-01-26T10:42:26.061Z,0.93
2023-01-26T10:43:26.155Z,0.95
2023-01-26T10:44:26.234Z,0.96
2023-01-26T10:45:26.320Z,0.92
2023-01-26T10:46:26.422Z,0.92
2023-01-26T10:47:26.478Z,0.89
2023-01-26T10:48:26.596Z,0.88
2023-01-26T10:49:26.631Z,0.90
2023-01-26T10:50:26.711Z,0.89
2023-01-26T10:51:26.808Z,0.89
2023-01-26T10:52:26.847Z,0.84
2023-01-26T10:53:26.935Z,0.86
2023-01-26T10:54:26.995Z,0.82
2023-01-26T10:55:27.068Z,0.82
2023-01-26T10:56:27.178Z,0.81
2023-01-26T10:57:27.230Z,0.82
2023-01-26T10:58:27.316Z,0.88
2023-01-26T10:59:27.383Z,0.90
2023-01-26T11:00:27.463Z,0.93
2023-01-26T11:01:27.822Z,0.98
2023-01-26T11:02:27.922Z,1.00
2023-01-26T11:03:27.703Z,1.02
2023-01-26T11:04:27.785Z,1.07
2023-01-26T11:05:27.883Z,1.11
2023-01-26T11:06:27.954Z,1.16
2023-01-26T11:07:28.021Z,1.17
2023-01-26T11:08:28.098Z,1.17
2023-01-26T11:09:28.169Z,1.17
2023-01-26T11:10:28.244Z,1.18
2023-01-26T11:11:28.315Z,1.18
2023-01-26T11:12:28.360Z,1.18
2023-01-26T11:13:28.437Z,1.18
2023-01-26T11:14:28.515Z,1.20
2023-01-26T11:15:28.590Z,1.21
2023-01-26T11:16:28.727Z,1.25
2023-01-26T11:17:28.749Z,1.24
2023-01-26T11:18:28.825Z,1.24
2023-01-26T11:19:28.906Z,1.21
2023-01-26T11:20:28.966Z,1.18
2023-01-26T11:21:29.063Z,1.17
2023-01-26T11:22:29.099Z,1.16
2023-01-26T11:23:29.183Z,1.17
2023-01-26T11:24:29.269Z,1.18
2023-01-26T11:25:29.376Z,1.20
2023-01-26T11:26:29.421Z,1.28
2023-01-26T11:27:29.509Z,1.28
2023-01-26T11:28:29.590Z,1.26
2023-01-26T11:29:29.672Z,1.29
2023-01-26T11:30:29.958Z,1.26
2023-01-26T11:31:29.924Z,1.26
2023-01-26T11:32:29.931Z,1.26
2023-01-26T11:33:30.002Z,1.24
2023-01-26T11:34:30.068Z,1.24
2023-01-26T11:35:30.160Z,1.26
2023-01-26T11:36:30.239Z,1.25
2023-01-26T11:37:30.333Z,1.24
2023-01-26T11:38:30.427Z,1.25
2023-01-26T11:39:30.514Z,1.28
2023-01-26T11:40:30.600Z,1.28
2023-01-26T11:41:30.688Z,1.28
2023-01-26T11:42:30.725Z,1.29
2023-01-26T11:43:30.804Z,1.29
2023-01-26T11:44:30.889Z,1.34
2023-01-26T11:45:31.016Z,1.34
2023-01-26T11:46:31.053Z,1.31
2023-01-26T11:47:31.144Z,1.34
2023-01-26T11:48:31.227Z,1.35
2023-01-26T11:49:31.301Z,1.38
2023-01-26T11:50:31.371Z,1.39
2023-01-26T11:51:31.460Z,1.42
2023-01-26T11:52:31.503Z,1.42
2023-01-26T11:53:31.579Z,1.44
2023-01-26T11:54:31.657Z,1.44
2023-01-26T11:55:31.733Z,1.44
2023-01-26T11:56:31.826Z,1.43
2023-01-26T11:57:31.919Z,1.38
2023-01-26T11:58:32.005Z,1.35
2023-01-26T11:59:32.075Z,1.32
2023-01-26T12:00:32.244Z,1.25
2023-01-26T12:01:32.251Z,1.24
2023-01-26T12:02:32.333Z,1.24
2023-01-26T12:03:32.433Z,1.25
2023-01-26T12:04:32.447Z,1.26
2023-01-26T12:05:32.521Z,1.29
2023-01-26T12:06:32.609Z,1.29
2023-01-26T12:07:32.669Z,1.26
2023-01-26T12:08:32.756Z,1.25
2023-01-26T12:09:32.830Z,1.24
2023-01-26T12:10:32.907Z,1.21
2023-01-26T12:11:32.999Z,1.20
2023-01-26T12:12:33.048Z,1.20
2023-01-26T12:13:33.118Z,1.20
2023-01-26T12:14:33.181Z,1.17
2023-01-26T12:15:33.277Z,1.16
2023-01-26T12:16:33.345Z,1.11
2023-01-26T12:17:33.420Z,1.14
2023-01-26T12:18:48.876Z,1.13
2023-01-26T12:19:33.593Z,1.14
2023-01-26T12:20:33.672Z,1.13
2023-01-26T12:21:33.785Z,1.16
2023-01-26T12:22:34.409Z,1.17
2023-01-26T12:23:33.924Z,1.17
2023-01-26T12:25:01.161Z,1.16
2023-01-26T12:25:34.657Z,1.14
2023-01-26T12:26:34.156Z,1.14
2023-01-26T12:27:34.291Z,1.17
2023-01-26T12:28:34.309Z,1.18
2023-01-26T12:29:34.379Z,1.16
2023-01-26T12:30:34.605Z,1.16
2023-01-26T12:31:34.740Z,1.14
2023-01-26T12:32:34.616Z,1.17
2023-01-26T12:33:34.728Z,1.16
2023-01-26T12:34:34.815Z,1.16
2023-01-26T12:35:34.883Z,1.11
2023-01-26T12:36:34.979Z,1.10
2023-01-26T12:37:35.051Z,1.07
2023-01-26T12:38:35.130Z,1.06
2023-01-26T12:39:35.219Z,1.06
2023-01-26T12:40:35.266Z,1.07
2023-01-26T12:41:35.375Z,1.06
2023-01-26T12:42:35.418Z,1.07
2023-01-26T12:43:35.488Z,1.08
2023-01-26T12:44:35.575Z,1.06
2023-01-26T12:45:35.637Z,1.07
2023-01-26T12:46:35.789Z,1.04
2023-01-26T12:47:35.804Z,1.04
2023-01-26T12:48:35.885Z,1.04
2023-01-26T12:49:36.041Z,1.02
2023-01-26T12:50:36.042Z,1.06
2023-01-26T12:51:36.151Z,1.07
2023-01-26T12:52:36.177Z,1.11
2023-01-26T12:53:37.855Z,1.14
2023-01-26T12:54:36.341Z,1.13
2023-01-26T12:55:36.405Z,1.10
2023-01-26T12:56:36.500Z,1.08
2023-01-26T12:57:36.587Z,1.07
2023-01-26T12:58:36.662Z,1.08
2023-01-26T12:59:48.436Z,1.07
2023-01-26T13:00:36.813Z,1.07
2023-01-26T13:01:36.930Z,1.07
2023-01-26T13:02:36.982Z,1.10
2023-01-26T13:03:37.046Z,1.13